createdAt,value
2023-05-19T00:01:16.085Z,10.08
2023-05-19T00:04:01.167Z,10.11
2023-05-19T00:06:46.044Z,10.12
2023-05-19T00:09:31.096Z,10.17
2023-05-19T00:12:16.002Z,10.14
2023-05-19T00:15:00.983Z,10.13
2023-05-19T00:17:45.919Z,10.14
2023-05-19T00:20:30.924Z,10.12
2023-05-19T00:23:15.679Z,10.06
2023-05-19T00:26:00.563Z,10.04
2023-05-19T00:28:45.528Z,10.10
2023-05-19T00:31:30.341Z,10.18
2023-05-19T00:34:15.347Z,10.19
2023-05-19T00:37:02.306Z,10.22
2023-05-19T00:39:47.274Z,10.13
2023-05-19T00:42:32.364Z,10.12
2023-05-19T00:45:17.261Z,10.12
2023-05-19T00:48:02.454Z,10.08
2023-05-19T00:50:47.355Z,10.00
2023-05-19T00:53:32.388Z,9.96
2023-05-19T00:56:17.515Z,9.95
2023-05-19T00:59:02.377Z,9.93
2023-05-19T01:01:47.461Z,9.93
2023-05-19T01:04:32.504Z,9.93
2023-05-19T01:07:17.662Z,9.96
2023-05-19T01:10:02.604Z,9.97
2023-05-19T01:12:47.699Z,10.00
2023-05-19T01:15:32.623Z,10.02
2023-05-19T01:18:17.529Z,9.99
2023-05-19T01:21:02.545Z,10.02
2023-05-19T01:23:47.558Z,9.97
2023-05-19T01:26:32.464Z,9.98
2023-05-19T01:29:17.339Z,9.99
2023-05-19T01:32:02.454Z,9.97
2023-05-19T01:34:47.300Z,9.95
2023-05-19T01:37:32.039Z,9.92
2023-05-19T01:40:16.957Z,9.88
2023-05-19T01:43:02.098Z,9.90
2023-05-19T01:45:47.052Z,9.91
2023-05-19T01:48:31.941Z,9.89
2023-05-19T01:51:17.037Z,9.86
2023-05-19T01:54:02.154Z,9.84
2023-05-19T01:56:47.172Z,9.83
2023-05-19T01:59:32.054Z,9.83
2023-05-19T02:02:17.003Z,9.84
2023-05-19T02:05:01.981Z,9.88
2023-05-19T02:07:47.065Z,9.89
2023-05-19T02:10:32.222Z,9.93
2023-05-19T02:13:17.488Z,9.90
2023-05-19T02:16:02.443Z,9.86
2023-05-19T02:18:47.408Z,9.85
2023-05-19T02:21:32.383Z,9.88
2023-05-19T02:24:17.271Z,9.82
2023-05-19T02:27:02.236Z,9.83
2023-05-19T02:29:47.361Z,9.82
2023-05-19T02:32:32.247Z,9.83
2023-05-19T02:35:17.184Z,9.85
2023-05-19T02:38:01.959Z,9.82
2023-05-19T02:40:46.860Z,9.76
2023-05-19T02:43:31.812Z,9.75
2023-05-19T02:46:16.910Z,9.73
2023-05-19T02:49:01.728Z,9.75
2023-05-19T02:51:46.712Z,9.69
2023-05-19T02:54:31.703Z,9.71
2023-05-19T02:57:16.632Z,9.70
2023-05-19T03:00:01.764Z,9.67
2023-05-19T03:02:46.782Z,9.67
2023-05-19T03:05:31.603Z,9.69
2023-05-19T03:08:16.656Z,9.66
2023-05-19T03:11:01.249Z,9.73
2023-05-19T03:13:46.127Z,9.69
2023-05-19T03:16:31.023Z,9.65
2023-05-19T03:19:15.949Z,9.57
2023-05-19T03:22:00.886Z,9.58
2023-05-19T03:24:45.909Z,9.53
2023-05-19T03:27:30.955Z,9.52
2023-05-19T03:30:15.937Z,9.53
2023-05-19T03:33:00.857Z,9.57
2023-05-19T03:35:45.815Z,9.59
2023-05-19T03:38:30.600Z,9.57
2023-05-19T03:41:15.517Z,9.60
2023-05-19T03:44:00.319Z,9.56
2023-05-19T03:46:45.333Z,9.51
2023-05-19T03:49:30.207Z,9.51
2023-05-19T03:52:15.249Z,9.54
2023-05-19T03:55:00.341Z,9.56
2023-05-19T03:57:45.285Z,9.53
2023-05-19T04:00:30.518Z,9.53
2023-05-19T04:03:15.802Z,9.51
2023-05-19T04:06:00.715Z,9.46
2023-05-19T04:08:45.557Z,9.49
2023-05-19T04:11:30.389Z,9.51
2023-05-19T04:14:15.366Z,9.53
2023-05-19T04:17:00.339Z,9.48
2023-05-19T04:19:45.277Z,9.50
2023-05-19T04:22:30.072Z,9.47
2023-05-19T04:25:14.883Z,9.51
2023-05-19T04:27:59.872Z,9.51
2023-05-19T04:30:44.995Z,9.52
2023-05-19T04:33:30.069Z,9.52
2023-05-19T04:36:14.981Z,9.52
2023-05-19T04:38:59.961Z,9.53
2023-05-19T04:41:44.952Z,9.57
2023-05-19T04:44:30.056Z,9.59
2023-05-19T04:47:14.870Z,9.55
2023-05-19T04:50:00.033Z,9.55
2023-05-19T04:52:45.018Z,9.54
2023-05-19T04:55:30.479Z,9.60
2023-05-19T04:58:15.515Z,9.57
2023-05-19T05:01:00.331Z,9.58
2023-05-19T05:03:45.322Z,9.60
2023-05-19T05:06:30.258Z,9.66
2023-05-19T05:09:15.139Z,9.68
2023-05-19T05:11:59.981Z,9.69
2023-05-19T05:14:44.963Z,9.73
2023-05-19T05:17:29.926Z,9.70
2023-05-19T05:20:14.969Z,9.70
2023-05-19T05:23:00.133Z,9.72
2023-05-19T05:25:45.058Z,9.74
2023-05-19T05:28:30.252Z,9.74
2023-05-19T05:31:15.234Z,9.78
2023-05-19T05:34:00.195Z,9.79
2023-05-19T05:36:45.096Z,9.83
2023-05-19T05:39:30.152Z,9.85
2023-05-19T05:42:15.230Z,9.90
2023-05-19T05:45:00.174Z,9.89
2023-05-19T05:47:45.186Z,9.89
2023-05-19T05:50:30.103Z,9.90
2023-05-19T05:53:15.157Z,9.90
2023-05-19T05:56:00.211Z,9.89
2023-05-19T05:58:45.193Z,9.92
2023-05-19T06:01:30.099Z,9.95
2023-05-19T06:04:15.068Z,9.99
2023-05-19T06:07:00.243Z,10.02
2023-05-19T06:09:45.160Z,10.00
2023-05-19T06:12:30.254Z,10.06
2023-05-19T06:15:15.197Z,10.05
2023-05-19T06:17:59.988Z,10.08
2023-05-19T06:20:44.819Z,10.03
2023-05-19T06:23:29.789Z,10.05
2023-05-19T06:26:14.711Z,10.09
2023-05-19T06:28:59.769Z,10.19
2023-05-19T06:31:44.793Z,10.28
2023-05-19T06:34:29.705Z,10.34
2023-05-19T06:37:14.737Z,10.00
2023-05-19T06:39:59.553Z,10.15
2023-05-19T06:42:44.476Z,10.14
2023-05-19T06:45:29.572Z,10.21
2023-05-19T06:48:14.562Z,10.23
2023-05-19T06:50:59.556Z,10.27
2023-05-19T06:53:44.595Z,10.38
2023-05-19T06:56:29.583Z,10.22
2023-05-19T06:59:14.322Z,10.06
2023-05-19T07:01:59.557Z,10.05
2023-05-19T07:04:44.331Z,10.18
2023-05-19T07:07:29.212Z,10.40
2023-05-19T07:10:14.237Z,10.40
2023-05-19T07:12:59.715Z,10.53
2023-05-19T07:15:44.621Z,10.46
2023-05-19T07:18:29.480Z,10.52
2023-05-19T07:21:15.352Z,10.49
2023-05-19T07:24:00.551Z,10.45
2023-05-19T07:26:45.616Z,10.32
2023-05-19T07:29:30.653Z,10.40
2023-05-19T07:32:15.683Z,10.48
2023-05-19T07:35:00.815Z,10.58
2023-05-19T07:37:45.694Z,10.71
2023-05-19T07:40:30.851Z,10.76
2023-05-19T07:43:15.770Z,10.97
2023-05-19T07:46:00.823Z,11.21
2023-05-19T07:48:45.941Z,11.21
2023-05-19T07:51:30.933Z,11.34
2023-05-19T07:54:15.807Z,11.22
2023-05-19T07:57:00.735Z,11.31
2023-05-19T07:59:45.706Z,11.41
2023-05-19T08:02:30.655Z,11.19
2023-05-19T08:05:15.623Z,11.77
2023-05-19T08:08:00.532Z,11.99
2023-05-19T08:10:45.570Z,12.29
2023-05-19T08:13:30.403Z,12.30
2023-05-19T08:16:15.456Z,12.39
2023-05-19T08:19:00.360Z,12.70
2023-05-19T08:21:45.411Z,12.64
2023-05-19T08:24:30.586Z,12.89
2023-05-19T08:27:15.430Z,13.14
2023-05-19T08:30:00.345Z,12.54
2023-05-19T08:32:45.453Z,12.35
2023-05-19T08:35:30.647Z,12.25
2023-05-19T08:38:15.584Z,12.34
2023-05-19T08:41:00.592Z,12.45
2023-05-19T08:43:45.624Z,12.34
2023-05-19T08:46:30.493Z,12.47
2023-05-19T08:49:17.405Z,12.63
2023-05-19T08:52:03.037Z,12.64
2023-05-19T08:54:47.996Z,12.63
2023-05-19T08:57:33.088Z,12.69
2023-05-19T09:00:18.014Z,12.55
2023-05-19T09:03:17.369Z,12.39
2023-05-19T09:06:08.286Z,12.41
2023-05-19T09:08:53.061Z,12.28
2023-05-19T09:11:38.044Z,12.59
2023-05-19T09:14:23.011Z,12.55
2023-05-19T09:17:07.678Z,13.00
2023-05-19T09:19:52.730Z,12.92
2023-05-19T09:22:37.944Z,13.18
2023-05-19T09:25:22.958Z,13.40
2023-05-19T09:28:07.836Z,13.30
2023-05-19T09:30:52.883Z,13.62
2023-05-19T09:33:37.954Z,13.60
2023-05-19T09:36:22.871Z,13.94
2023-05-19T09:39:07.832Z,14.05
2023-05-19T09:41:53.010Z,13.94
2023-05-19T09:44:38.080Z,13.93
2023-05-19T09:47:23.013Z,14.25
2023-05-19T09:50:08.105Z,14.53
2023-05-19T09:52:52.773Z,14.95
2023-05-19T09:55:37.789Z,14.98
2023-05-19T09:58:22.791Z,15.01
2023-05-19T10:01:07.851Z,15.28
2023-05-19T10:03:52.741Z,15.09
2023-05-19T10:06:37.716Z,15.15
2023-05-19T10:09:22.564Z,15.31
2023-05-19T10:12:07.457Z,15.49
2023-05-19T10:14:52.424Z,15.57
2023-05-19T10:17:37.409Z,15.27
2023-05-19T10:20:23.607Z,15.44
2023-05-19T10:23:08.390Z,15.69
2023-05-19T10:25:53.502Z,15.58
2023-05-19T10:28:38.322Z,15.43
2023-05-19T10:31:23.343Z,15.05
2023-05-19T10:34:08.461Z,15.03
2023-05-19T10:36:53.444Z,15.51
2023-05-19T10:39:38.588Z,15.53
2023-05-19T10:42:23.580Z,15.48
2023-05-19T10:45:08.439Z,15.30
2023-05-19T10:47:53.339Z,15.41
2023-05-19T10:50:38.239Z,15.48
2023-05-19T10:53:23.140Z,15.79
2023-05-19T10:56:08.104Z,15.96
2023-05-19T10:58:53.080Z,16.11
2023-05-19T11:01:38.108Z,16.03
2023-05-19T11:04:22.993Z,16.09
2023-05-19T11:07:07.993Z,16.05
2023-05-19T11:09:53.018Z,16.13
2023-05-19T11:12:37.906Z,16.34
2023-05-19T11:15:22.742Z,16.20
2023-05-19T11:18:08.218Z,16.27
2023-05-19T11:20:53.211Z,16.35
2023-05-19T11:23:38.181Z,16.10
2023-05-19T11:26:23.031Z,16.28
2023-05-19T11:29:08.045Z,16.37
2023-05-19T11:31:52.842Z,16.31
2023-05-19T11:34:37.814Z,16.47
2023-05-19T11:37:22.657Z,16.54
2023-05-19T11:40:07.609Z,16.02
2023-05-19T11:42:52.490Z,16.15
2023-05-19T11:45:37.574Z,16.10
2023-05-19T11:48:22.469Z,16.18
2023-05-19T11:51:07.237Z,16.07
2023-05-19T11:53:52.180Z,16.09
2023-05-19T11:56:37.080Z,16.04
2023-05-19T11:59:22.027Z,15.82
2023-05-19T12:02:07.000Z,15.87
2023-05-19T12:04:52.407Z,15.89
2023-05-19T12:07:37.350Z,15.82
2023-05-19T12:10:22.324Z,15.85
2023-05-19T12:13:07.457Z,15.55
2023-05-19T12:15:52.552Z,15.69
2023-05-19T12:18:37.769Z,15.68
2023-05-19T12:21:22.614Z,15.82
2023-05-19T12:24:07.572Z,15.70
2023-05-19T12:26:52.618Z,15.75
2023-05-19T12:29:37.592Z,15.84
2023-05-19T12:32:22.246Z,15.83
2023-05-19T12:35:07.142Z,15.65
2023-05-19T12:37:52.134Z,15.35
2023-05-19T12:40:37.547Z,15.43
2023-05-19T12:46:42.344Z,15.42
2023-05-19T12:59:30.576Z,14.72
2023-05-19T13:02:25.673Z,14.69
2023-05-19T13:05:10.494Z,14.53
2023-05-19T13:07:55.555Z,14.71
2023-05-19T13:10:43.543Z,14.52
2023-05-19T13:13:28.783Z,14.66
2023-05-19T13:16:13.582Z,14.79
2023-05-19T13:18:59.451Z,14.78
2023-05-19T13:21:44.229Z,14.27
2023-05-19T13:24:31.210Z,14.48
2023-05-19T13:27:21.246Z,14.72
2023-05-19T13:30:06.366Z,14.77
2023-05-19T13:32:51.776Z,14.78
2023-05-19T13:35:37.060Z,14.79
2023-05-19T13:38:26.408Z,14.86
2023-05-19T13:41:12.655Z,14.74
2023-05-19T13:43:59.347Z,14.71
2023-05-19T13:46:46.099Z,14.81
2023-05-19T13:49:32.356Z,14.86
2023-05-19T13:52:17.496Z,14.94
2023-05-19T13:55:02.585Z,14.80
2023-05-19T13:57:47.803Z,14.30
2023-05-19T14:00:33.034Z,14.04
2023-05-19T14:03:18.353Z,14.44
2023-05-19T14:06:03.125Z,14.31
2023-05-19T14:08:48.355Z,14.64
2023-05-19T14:11:33.338Z,14.75
2023-05-19T14:14:18.496Z,14.62
2023-05-19T14:17:03.533Z,14.63
2023-05-19T14:19:48.435Z,14.45
2023-05-19T14:22:33.751Z,14.45
2023-05-19T14:25:18.820Z,14.64
2023-05-19T14:28:03.883Z,14.66
2023-05-19T14:30:48.519Z,14.30
2023-05-19T14:33:35.571Z,14.17
2023-05-19T14:36:21.013Z,13.99
2023-05-19T14:39:06.085Z,14.13
2023-05-19T14:41:51.020Z,14.20
2023-05-19T14:44:35.904Z,14.23
2023-05-19T14:47:20.962Z,14.18
2023-05-19T14:50:05.910Z,14.16
2023-05-19T14:52:51.024Z,14.41
2023-05-19T14:55:36.264Z,14.40
2023-05-19T14:58:28.946Z,14.50
2023-05-19T15:01:14.504Z,14.59
2023-05-19T15:03:59.489Z,14.43
2023-05-19T15:06:45.180Z,14.35
2023-05-19T15:09:31.475Z,14.45
2023-05-19T15:12:16.532Z,14.25
2023-05-19T15:15:01.380Z,14.39
2023-05-19T15:17:46.310Z,14.39
2023-05-19T15:20:31.079Z,14.35
2023-05-19T15:23:16.139Z,14.45
2023-05-19T15:26:01.029Z,14.53
2023-05-19T15:28:46.001Z,14.35
2023-05-19T15:31:31.082Z,14.16
2023-05-19T15:40:53.168Z,14.49
2023-05-19T15:43:41.960Z,14.50
2023-05-19T15:46:27.035Z,14.58
2023-05-19T15:49:12.968Z,14.43
2023-05-19T15:51:59.149Z,14.43
2023-05-19T15:54:44.124Z,14.50
2023-05-19T15:57:28.860Z,14.49
2023-05-19T16:00:14.341Z,14.51
2023-05-19T16:02:59.869Z,14.53
2023-05-19T16:05:48.622Z,14.29
2023-05-19T16:08:33.980Z,14.37
2023-05-19T16:11:18.717Z,14.44
2023-05-19T16:14:04.052Z,14.21
2023-05-19T16:16:48.857Z,14.31
2023-05-19T16:19:34.032Z,14.22
2023-05-19T16:22:19.209Z,14.17
2023-05-19T16:25:04.125Z,14.36
2023-05-19T16:27:49.008Z,14.38
2023-05-19T16:30:34.101Z,14.39
2023-05-19T16:33:19.281Z,14.22
2023-05-19T16:36:04.218Z,14.16
2023-05-19T16:38:49.180Z,14.30
2023-05-19T16:41:34.310Z,14.25
2023-05-19T16:44:19.194Z,14.37
2023-05-19T16:47:04.269Z,14.43
2023-05-19T16:49:49.439Z,14.46
2023-05-19T16:52:34.612Z,14.44
2023-05-19T16:55:19.617Z,14.28
2023-05-19T16:58:04.464Z,14.00
2023-05-19T17:00:49.988Z,13.86
2023-05-19T17:03:35.186Z,13.88
2023-05-19T17:06:20.273Z,13.60
2023-05-19T17:09:05.262Z,13.67
2023-05-19T17:11:50.082Z,13.73
2023-05-19T17:14:34.922Z,13.82
2023-05-19T17:17:19.985Z,13.68
2023-05-19T17:20:04.928Z,13.56
2023-05-19T17:22:51.076Z,13.46
2023-05-19T17:25:36.128Z,13.08
2023-05-19T17:28:20.987Z,13.46
2023-05-19T17:31:06.050Z,13.45
2023-05-19T17:33:51.019Z,13.47
2023-05-19T17:36:35.981Z,13.51
2023-05-19T17:39:20.920Z,13.54
2023-05-19T17:42:05.965Z,13.23
2023-05-19T17:44:51.123Z,13.03
2023-05-19T18:03:53.664Z,13.67
2023-05-19T18:09:59.591Z,13.73
2023-05-19T18:13:04.943Z,13.70
2023-05-19T18:16:00.073Z,13.46
2023-05-19T18:18:50.909Z,13.32
2023-05-19T18:24:48.973Z,13.32
2023-05-19T18:27:41.903Z,13.22
2023-05-19T18:46:42.996Z,12.89
2023-05-19T18:49:33.981Z,12.92
2023-05-19T18:55:42.698Z,12.88
2023-05-19T19:01:48.149Z,13.03
2023-05-19T19:04:33.074Z,13.09
2023-05-19T19:07:18.099Z,13.04
2023-05-19T19:10:02.987Z,12.93
2023-05-19T19:12:48.008Z,12.93
2023-05-19T19:15:33.024Z,12.86
2023-05-19T19:18:17.727Z,12.98
2023-05-19T19:21:02.901Z,12.93
2023-05-19T19:23:47.942Z,12.88
2023-05-19T19:26:32.763Z,12.86
2023-05-19T19:29:17.861Z,12.89
2023-05-19T19:32:03.215Z,12.81
2023-05-19T19:34:48.098Z,12.73
2023-05-19T19:37:32.974Z,12.70
2023-05-19T19:40:17.762Z,12.73
2023-05-19T19:43:02.702Z,12.77
2023-05-19T19:45:47.437Z,12.72
2023-05-19T19:48:32.486Z,12.62
2023-05-19T19:51:17.420Z,12.63
2023-05-19T19:54:02.532Z,12.70
2023-05-19T19:56:47.510Z,12.67
2023-05-19T19:59:32.545Z,12.66
2023-05-19T20:02:17.701Z,12.71
2023-05-19T20:05:03.643Z,12.56
2023-05-19T20:07:48.556Z,12.51
2023-05-19T20:10:33.776Z,12.53
2023-05-19T20:13:18.888Z,12.44
2023-05-19T20:16:03.978Z,12.41
2023-05-19T20:18:49.105Z,12.37
2023-05-19T20:21:33.998Z,12.44
2023-05-19T20:24:18.820Z,12.41
2023-05-19T20:27:03.871Z,12.43
2023-05-19T20:29:48.965Z,12.43
2023-05-19T20:32:33.981Z,12.51
2023-05-19T20:35:18.917Z,12.48
2023-05-19T20:38:03.889Z,12.45
2023-05-19T20:40:48.654Z,12.45
2023-05-19T20:43:33.789Z,12.43
2023-05-19T20:46:18.671Z,12.39
2023-05-19T20:49:03.561Z,12.42
2023-05-19T20:51:48.598Z,12.42
2023-05-19T20:54:33.441Z,12.42
2023-05-19T20:57:18.340Z,12.40
2023-05-19T21:00:03.159Z,12.38
2023-05-19T21:02:48.201Z,12.35
2023-05-19T21:05:33.217Z,12.33
2023-05-19T21:08:18.492Z,12.27
2023-05-19T21:11:03.435Z,12.29
2023-05-19T21:13:48.523Z,12.27
2023-05-19T21:16:33.780Z,12.27
2023-05-19T21:19:18.707Z,12.29
2023-05-19T21:22:03.757Z,12.22
2023-05-19T21:24:48.732Z,12.19
2023-05-19T21:27:33.795Z,12.16
2023-05-19T21:30:18.662Z,12.20
2023-05-19T21:33:03.663Z,12.22
2023-05-19T21:35:48.537Z,12.13
2023-05-19T21:38:33.443Z,12.17
2023-05-19T21:41:18.371Z,12.14
2023-05-19T21:44:03.242Z,12.15
2023-05-19T21:46:48.305Z,12.20
2023-05-19T21:49:33.113Z,12.20
2023-05-19T21:52:18.217Z,12.21
2023-05-19T21:55:03.110Z,12.18
2023-05-19T21:57:48.213Z,12.20
2023-05-19T22:00:33.199Z,12.13
2023-05-19T22:03:18.646Z,12.14
2023-05-19T22:06:03.451Z,12.17
2023-05-19T22:08:48.401Z,12.10
2023-05-19T22:11:33.528Z,12.10
2023-05-19T22:14:18.386Z,12.12
2023-05-19T22:17:03.432Z,12.09
2023-05-19T22:19:48.344Z,12.08
2023-05-19T22:22:33.236Z,12.10
2023-05-19T22:25:18.280Z,12.11
2023-05-19T22:28:03.265Z,12.08
2023-05-19T22:30:48.213Z,12.05
2023-05-19T22:33:33.155Z,12.08
2023-05-19T22:36:18.012Z,11.99
2023-05-19T22:39:02.856Z,11.94
2023-05-19T22:41:47.864Z,11.97
2023-05-19T22:44:32.704Z,11.97
2023-05-19T22:47:17.502Z,11.92
2023-05-19T22:50:02.530Z,11.92
2023-05-19T22:52:47.497Z,11.92
2023-05-19T22:55:32.892Z,11.93
2023-05-19T22:58:17.873Z,11.91
2023-05-19T23:01:03.146Z,11.84
2023-05-19T23:03:48.371Z,11.87
2023-05-19T23:06:33.316Z,11.79
2023-05-19T23:09:18.252Z,11.75
2023-05-19T23:12:03.108Z,11.74
2023-05-19T23:14:48.220Z,11.74
2023-05-19T23:17:33.049Z,11.71
2023-05-19T23:20:17.991Z,11.70
2023-05-19T23:23:02.831Z,11.70
2023-05-19T23:25:48.024Z,11.63
2023-05-19T23:28:32.941Z,11.61
2023-05-19T23:31:17.908Z,11.57
2023-05-19T23:34:02.896Z,11.53
2023-05-19T23:36:47.850Z,11.48
2023-05-19T23:39:32.994Z,11.45
2023-05-19T23:42:18.097Z,11.35
2023-05-19T23:45:03.067Z,11.34
2023-05-19T23:47:48.135Z,11.28
2023-05-19T23:50:32.922Z,11.20
2023-05-19T23:53:17.851Z,11.12
2023-05-19T23:56:02.709Z,11.18
2023-05-19T23:58:47.769Z,11.12
